Urundel, Argentina
Current Conditions -  °F | °C
As of 6:00 PM on Saturday 22 Nov 2014 (Local Time) from SASJ Reporting Station
Overcast Overcast  
Wind Chill: 20°   Ceiling: 10000
Heat Index: 20°   Visibility: 6mi
Dew Point: 16°   Wind: 5mph
Humidity: 78%   Direction: 90°E
Pressure: 30"   Gusts: NA
Location:  23.55°S, 64.42°W
Report Text: SASJ 222100Z 09004KT 9999 SCT020 OVC10020/16 Q1016
Loading
Personal Weather Stations






























Interactive Weather Map New forecast layout! Learn more

10-Day Weather Forecast

Advertisements
Track Severe Weather on mobile